sensor_id;sensor_type;location;lat;lon;timestamp;P1;durP1;ratioP1;P2;durP2;ratioP2
986;SDS011;482;48.778;9.210;2022-07-17T00:01:14;7.33;;;6.73;;
986;SDS011;482;48.778;9.210;2022-07-17T00:03:41;7.63;;;6.93;;
986;SDS011;482;48.778;9.210;2022-07-17T00:06:08;7.50;;;6.90;;
986;SDS011;482;48.778;9.210;2022-07-17T00:08:35;8.20;;;6.23;;
986;SDS011;482;48.778;9.210;2022-07-17T00:11:02;6.90;;;6.30;;
986;SDS011;482;48.778;9.210;2022-07-17T00:13:31;7.37;;;6.77;;
986;SDS011;482;48.778;9.210;2022-07-17T00:15:58;5.90;;;5.40;;
986;SDS011;482;48.778;9.210;2022-07-17T00:18:24;7.77;;;6.30;;
986;SDS011;482;48.778;9.210;2022-07-17T00:20:51;6.70;;;6.00;;
986;SDS011;482;48.778;9.210;2022-07-17T00:23:18;6.60;;;6.10;;
986;SDS011;482;48.778;9.210;2022-07-17T00:25:46;6.97;;;6.37;;
986;SDS011;482;48.778;9.210;2022-07-17T00:28:12;6.80;;;6.17;;
986;SDS011;482;48.778;9.210;2022-07-17T00:30:41;6.90;;;6.20;;
986;SDS011;482;48.778;9.210;2022-07-17T00:33:08;6.43;;;5.83;;
986;SDS011;482;48.778;9.210;2022-07-17T00:35:34;7.20;;;6.50;;
986;SDS011;482;48.778;9.210;2022-07-17T00:38:01;6.43;;;5.90;;
986;SDS011;482;48.778;9.210;2022-07-17T00:40:28;7.57;;;6.97;;
986;SDS011;482;48.778;9.210;2022-07-17T00:42:55;6.60;;;6.00;;
986;SDS011;482;48.778;9.210;2022-07-17T00:45:22;6.93;;;6.32;;
986;SDS011;482;48.778;9.210;2022-07-17T00:47:52;6.13;;;5.63;;
986;SDS011;482;48.778;9.210;2022-07-17T00:50:22;7.07;;;6.47;;
986;SDS011;482;48.778;9.210;2022-07-17T00:52:50;6.90;;;6.40;;
986;SDS011;482;48.778;9.210;2022-07-17T00:55:17;6.90;;;6.20;;
986;SDS011;482;48.778;9.210;2022-07-17T00:57:45;6.70;;;6.05;;
986;SDS011;482;48.778;9.210;2022-07-17T01:00:13;6.15;;;5.70;;
986;SDS011;482;48.778;9.210;2022-07-17T01:02:44;7.53;;;6.80;;
986;SDS011;482;48.778;9.210;2022-07-17T01:05:14;7.05;;;6.45;;
986;SDS011;482;48.778;9.210;2022-07-17T01:07:42;7.00;;;6.37;;
986;SDS011;482;48.778;9.210;2022-07-17T01:10:09;7.28;;;6.68;;
986;SDS011;482;48.778;9.210;2022-07-17T01:12:36;7.07;;;6.47;;
986;SDS011;482;48.778;9.210;2022-07-17T01:15:05;6.75;;;6.15;;
986;SDS011;482;48.778;9.210;2022-07-17T01:17:34;7.10;;;6.60;;
986;SDS011;482;48.778;9.210;2022-07-17T01:20:02;7.38;;;6.50;;
986;SDS011;482;48.778;9.210;2022-07-17T01:22:31;6.90;;;6.30;;
986;SDS011;482;48.778;9.210;2022-07-17T01:24:58;7.03;;;6.43;;
986;SDS011;482;48.778;9.210;2022-07-17T01:27:26;6.50;;;6.00;;
986;SDS011;482;48.778;9.210;2022-07-17T01:29:55;6.95;;;6.45;;
986;SDS011;482;48.778;9.210;2022-07-17T01:32:30;7.13;;;6.43;;
986;SDS011;482;48.778;9.210;2022-07-17T01:34:57;7.00;;;6.50;;
986;SDS011;482;48.778;9.210;2022-07-17T01:37:24;8.10;;;7.35;;
986;SDS011;482;48.778;9.210;2022-07-17T01:39:52;6.68;;;6.15;;
986;SDS011;482;48.778;9.210;2022-07-17T01:42:19;7.40;;;6.80;;
986;SDS011;482;48.778;9.210;2022-07-17T01:44:47;7.87;;;7.17;;
986;SDS011;482;48.778;9.210;2022-07-17T01:47:14;7.38;;;6.78;;
986;SDS011;482;48.778;9.210;2022-07-17T01:49:45;8.25;;;6.43;;
986;SDS011;482;48.778;9.210;2022-07-17T01:52:12;7.40;;;6.80;;
986;SDS011;482;48.778;9.210;2022-07-17T01:54:39;6.97;;;6.32;;
986;SDS011;482;48.778;9.210;2022-07-17T01:57:08;7.47;;;6.80;;
986;SDS011;482;48.778;9.210;2022-07-17T01:59:37;6.95;;;6.18;;
986;SDS011;482;48.778;9.210;2022-07-17T02:02:04;6.83;;;6.23;;
986;SDS011;482;48.778;9.210;2022-07-17T02:04:32;6.97;;;6.38;;
986;SDS011;482;48.778;9.210;2022-07-17T02:06:59;7.47;;;6.78;;
986;SDS011;482;48.778;9.210;2022-07-17T02:09:26;6.97;;;6.35;;
986;SDS011;482;48.778;9.210;2022-07-17T02:11:53;7.55;;;6.90;;
986;SDS011;482;48.778;9.210;2022-07-17T02:14:22;7.68;;;7.07;;
986;SDS011;482;48.778;9.210;2022-07-17T02:16:48;8.20;;;7.50;;
986;SDS011;482;48.778;9.210;2022-07-17T02:19:15;8.02;;;7.32;;
986;SDS011;482;48.778;9.210;2022-07-17T02:21:42;8.15;;;7.45;;
986;SDS011;482;48.778;9.210;2022-07-17T02:24:09;8.20;;;7.45;;
986;SDS011;482;48.778;9.210;2022-07-17T02:26:36;9.15;;;8.35;;
986;SDS011;482;48.778;9.210;2022-07-17T02:29:04;8.20;;;7.50;;
986;SDS011;482;48.778;9.210;2022-07-17T02:31:32;9.07;;;8.27;;
986;SDS011;482;48.778;9.210;2022-07-17T02:33:59;9.43;;;8.00;;
986;SDS011;482;48.778;9.210;2022-07-17T02:36:26;8.80;;;8.00;;
986;SDS011;482;48.778;9.210;2022-07-17T02:38:53;9.60;;;7.47;;
986;SDS011;482;48.778;9.210;2022-07-17T02:41:19;8.18;;;7.40;;
986;SDS011;482;48.778;9.210;2022-07-17T02:43:46;9.40;;;8.50;;
986;SDS011;482;48.778;9.210;2022-07-17T02:46:13;7.90;;;7.10;;
986;SDS011;482;48.778;9.210;2022-07-17T02:48:41;8.57;;;7.65;;
986;SDS011;482;48.778;9.210;2022-07-17T02:51:09;8.77;;;7.97;;
986;SDS011;482;48.778;9.210;2022-07-17T02:53:36;8.90;;;8.02;;
986;SDS011;482;48.778;9.210;2022-07-17T02:56:03;9.23;;;8.52;;
986;SDS011;482;48.778;9.210;2022-07-17T02:58:30;9.10;;;8.20;;
986;SDS011;482;48.778;9.210;2022-07-17T03:00:57;12.65;;;9.60;;
986;SDS011;482;48.778;9.210;2022-07-17T03:03:24;10.75;;;9.70;;
986;SDS011;482;48.778;9.210;2022-07-17T03:05:52;10.77;;;8.73;;
986;SDS011;482;48.778;9.210;2022-07-17T03:08:19;9.90;;;9.00;;
986;SDS011;482;48.778;9.210;2022-07-17T03:10:46;9.20;;;8.40;;
986;SDS011;482;48.778;9.210;2022-07-17T03:13:13;9.82;;;8.82;;
986;SDS011;482;48.778;9.210;2022-07-17T03:15:40;9.68;;;8.75;;
986;SDS011;482;48.778;9.210;2022-07-17T03:18:06;10.20;;;9.30;;
986;SDS011;482;48.778;9.210;2022-07-17T03:20:33;9.82;;;8.93;;
986;SDS011;482;48.778;9.210;2022-07-17T03:23:02;10.15;;;9.15;;
986;SDS011;482;48.778;9.210;2022-07-17T03:25:29;8.93;;;8.13;;
986;SDS011;482;48.778;9.210;2022-07-17T03:27:56;10.45;;;9.35;;
986;SDS011;482;48.778;9.210;2022-07-17T03:30:23;11.00;;;8.70;;
986;SDS011;482;48.778;9.210;2022-07-17T03:32:49;8.95;;;8.07;;
986;SDS011;482;48.778;9.210;2022-07-17T03:35:16;10.70;;;9.70;;
986;SDS011;482;48.778;9.210;2022-07-17T03:37:43;9.90;;;8.90;;
986;SDS011;482;48.778;9.210;2022-07-17T03:40:12;10.07;;;9.15;;
986;SDS011;482;48.778;9.210;2022-07-17T03:42:39;9.98;;;9.07;;
986;SDS011;482;48.778;9.210;2022-07-17T03:45:06;10.82;;;9.45;;
986;SDS011;482;48.778;9.210;2022-07-17T03:47:33;10.30;;;9.30;;
986;SDS011;482;48.778;9.210;2022-07-17T03:50:00;10.85;;;9.73;;
986;SDS011;482;48.778;9.210;2022-07-17T03:52:27;10.90;;;9.80;;
986;SDS011;482;48.778;9.210;2022-07-17T03:54:54;11.43;;;10.40;;
986;SDS011;482;48.778;9.210;2022-07-17T03:57:22;11.10;;;10.00;;
986;SDS011;482;48.778;9.210;2022-07-17T03:59:49;10.45;;;9.45;;
986;SDS011;482;48.778;9.210;2022-07-17T04:02:16;10.95;;;9.95;;
986;SDS011;482;48.778;9.210;2022-07-17T04:04:43;10.23;;;9.18;;
986;SDS011;482;48.778;9.210;2022-07-17T04:07:10;9.65;;;8.65;;
986;SDS011;482;48.778;9.210;2022-07-17T04:09:52;10.60;;;9.70;;
986;SDS011;482;48.778;9.210;2022-07-17T04:12:19;10.63;;;9.48;;
986;SDS011;482;48.778;9.210;2022-07-17T04:14:48;10.77;;;9.77;;
986;SDS011;482;48.778;9.210;2022-07-17T04:17:15;10.35;;;9.35;;
986;SDS011;482;48.778;9.210;2022-07-17T04:19:42;11.32;;;10.20;;
986;SDS011;482;48.778;9.210;2022-07-17T04:22:09;10.07;;;9.15;;
986;SDS011;482;48.778;9.210;2022-07-17T04:24:36;10.82;;;9.82;;
986;SDS011;482;48.778;9.210;2022-07-17T04:27:03;10.52;;;9.60;;
986;SDS011;482;48.778;9.210;2022-07-17T04:29:30;11.23;;;10.20;;
986;SDS011;482;48.778;9.210;2022-07-17T04:31:58;10.27;;;9.30;;
986;SDS011;482;48.778;9.210;2022-07-17T04:34:25;11.77;;;10.13;;
986;SDS011;482;48.778;9.210;2022-07-17T04:36:52;10.23;;;9.25;;
986;SDS011;482;48.778;9.210;2022-07-17T04:39:19;10.32;;;9.32;;
986;SDS011;482;48.778;9.210;2022-07-17T04:41:48;10.77;;;9.70;;
986;SDS011;482;48.778;9.210;2022-07-17T04:44:15;9.25;;;8.35;;
986;SDS011;482;48.778;9.210;2022-07-17T04:46:42;10.60;;;9.70;;
986;SDS011;482;48.778;9.210;2022-07-17T04:49:10;9.93;;;9.02;;
986;SDS011;482;48.778;9.210;2022-07-17T04:51:37;9.40;;;8.60;;
986;SDS011;482;48.778;9.210;2022-07-17T04:54:04;9.95;;;9.10;;
986;SDS011;482;48.778;9.210;2022-07-17T04:56:31;10.65;;;9.15;;
986;SDS011;482;48.778;9.210;2022-07-17T04:58:58;8.70;;;7.90;;
986;SDS011;482;48.778;9.210;2022-07-17T05:01:25;10.25;;;9.25;;
986;SDS011;482;48.778;9.210;2022-07-17T05:03:52;9.27;;;8.43;;
986;SDS011;482;48.778;9.210;2022-07-17T05:06:20;10.30;;;9.38;;
986;SDS011;482;48.778;9.210;2022-07-17T05:08:47;9.50;;;8.60;;
986;SDS011;482;48.778;9.210;2022-07-17T05:11:14;9.90;;;9.00;;
986;SDS011;482;48.778;9.210;2022-07-17T05:13:41;9.40;;;8.52;;
986;SDS011;482;48.778;9.210;2022-07-17T05:16:08;10.48;;;9.57;;
986;SDS011;482;48.778;9.210;2022-07-17T05:18:34;10.02;;;9.13;;
986;SDS011;482;48.778;9.210;2022-07-17T05:21:01;9.32;;;8.48;;
986;SDS011;482;48.778;9.210;2022-07-17T05:23:30;9.45;;;8.65;;
986;SDS011;482;48.778;9.210;2022-07-17T05:25:56;9.80;;;8.80;;
986;SDS011;482;48.778;9.210;2022-07-17T05:28:23;10.68;;;9.55;;
986;SDS011;482;48.778;9.210;2022-07-17T05:30:50;11.13;;;10.02;;
986;SDS011;482;48.778;9.210;2022-07-17T05:33:17;10.50;;;9.50;;
986;SDS011;482;48.778;9.210;2022-07-17T05:35:44;10.65;;;9.65;;
986;SDS011;482;48.778;9.210;2022-07-17T05:38:11;10.02;;;9.13;;
986;SDS011;482;48.778;9.210;2022-07-17T05:40:39;10.85;;;9.90;;
986;SDS011;482;48.778;9.210;2022-07-17T05:43:07;10.80;;;9.80;;
986;SDS011;482;48.778;9.210;2022-07-17T05:45:34;9.60;;;8.70;;
986;SDS011;482;48.778;9.210;2022-07-17T05:48:01;9.57;;;8.63;;
986;SDS011;482;48.778;9.210;2022-07-17T05:50:28;10.32;;;9.38;;
986;SDS011;482;48.778;9.210;2022-07-17T05:52:55;11.23;;;10.15;;
986;SDS011;482;48.778;9.210;2022-07-17T05:55:21;9.80;;;8.80;;
986;SDS011;482;48.778;9.210;2022-07-17T05:57:50;10.68;;;9.77;;
986;SDS011;482;48.778;9.210;2022-07-17T06:00:16;9.85;;;8.95;;
986;SDS011;482;48.778;9.210;2022-07-17T06:02:44;9.80;;;8.80;;
986;SDS011;482;48.778;9.210;2022-07-17T06:05:11;10.15;;;8.48;;
986;SDS011;482;48.778;9.210;2022-07-17T06:07:37;9.88;;;9.07;;
986;SDS011;482;48.778;9.210;2022-07-17T06:10:05;9.13;;;8.43;;
986;SDS011;482;48.778;9.210;2022-07-17T06:12:32;10.55;;;9.63;;
986;SDS011;482;48.778;9.210;2022-07-17T06:15:01;11.35;;;10.25;;
986;SDS011;482;48.778;9.210;2022-07-17T06:17:28;10.48;;;9.48;;
986;SDS011;482;48.778;9.210;2022-07-17T06:19:55;10.32;;;9.32;;
986;SDS011;482;48.778;9.210;2022-07-17T06:22:22;9.55;;;8.65;;
986;SDS011;482;48.778;9.210;2022-07-17T06:24:49;10.95;;;9.95;;
986;SDS011;482;48.778;9.210;2022-07-17T06:27:16;10.80;;;9.80;;
986;SDS011;482;48.778;9.210;2022-07-17T06:29:42;11.55;;;10.45;;
986;SDS011;482;48.778;9.210;2022-07-17T06:32:11;11.15;;;10.15;;
986;SDS011;482;48.778;9.210;2022-07-17T06:34:38;10.38;;;9.40;;
986;SDS011;482;48.778;9.210;2022-07-17T06:37:05;9.07;;;8.27;;
986;SDS011;482;48.778;9.210;2022-07-17T06:39:32;9.07;;;8.35;;
986;SDS011;482;48.778;9.210;2022-07-17T06:41:59;10.63;;;9.65;;
986;SDS011;482;48.778;9.210;2022-07-17T06:44:27;9.90;;;9.00;;
986;SDS011;482;48.778;9.210;2022-07-17T06:46:54;9.93;;;9.02;;
986;SDS011;482;48.778;9.210;2022-07-17T06:49:22;9.32;;;8.43;;
986;SDS011;482;48.778;9.210;2022-07-17T06:51:50;10.75;;;9.32;;
986;SDS011;482;48.778;9.210;2022-07-17T06:54:17;9.77;;;8.98;;
986;SDS011;482;48.778;9.210;2022-07-17T06:56:44;10.85;;;9.85;;
986;SDS011;482;48.778;9.210;2022-07-17T06:59:11;8.90;;;8.20;;
986;SDS011;482;48.778;9.210;2022-07-17T07:01:38;9.00;;;8.20;;
986;SDS011;482;48.778;9.210;2022-07-17T07:04:05;8.77;;;7.97;;
986;SDS011;482;48.778;9.210;2022-07-17T07:06:33;9.18;;;8.38;;
986;SDS011;482;48.778;9.210;2022-07-17T07:09:00;7.85;;;7.15;;
986;SDS011;482;48.778;9.210;2022-07-17T07:11:27;8.77;;;7.88;;
986;SDS011;482;48.778;9.210;2022-07-17T07:13:54;8.15;;;7.55;;
986;SDS011;482;48.778;9.210;2022-07-17T07:16:21;9.07;;;7.97;;
986;SDS011;482;48.778;9.210;2022-07-17T07:18:48;8.57;;;7.77;;
986;SDS011;482;48.778;9.210;2022-07-17T07:21:15;8.03;;;7.30;;
986;SDS011;482;48.778;9.210;2022-07-17T07:23:43;7.70;;;6.90;;
986;SDS011;482;48.778;9.210;2022-07-17T07:26:10;7.50;;;6.90;;
986;SDS011;482;48.778;9.210;2022-07-17T07:28:37;7.53;;;6.83;;
986;SDS011;482;48.778;9.210;2022-07-17T07:31:04;7.43;;;6.83;;
986;SDS011;482;48.778;9.210;2022-07-17T07:33:31;7.67;;;7.07;;
986;SDS011;482;48.778;9.210;2022-07-17T07:35:58;7.00;;;6.50;;
986;SDS011;482;48.778;9.210;2022-07-17T07:38:25;8.20;;;7.40;;
986;SDS011;482;48.778;9.210;2022-07-17T07:40:53;7.10;;;6.50;;
986;SDS011;482;48.778;9.210;2022-07-17T07:43:20;7.20;;;6.50;;
986;SDS011;482;48.778;9.210;2022-07-17T07:45:47;7.43;;;6.73;;
986;SDS011;482;48.778;9.210;2022-07-17T07:48:14;7.00;;;6.30;;
986;SDS011;482;48.778;9.210;2022-07-17T07:50:41;7.00;;;6.50;;
986;SDS011;482;48.778;9.210;2022-07-17T07:53:08;6.13;;;5.63;;
986;SDS011;482;48.778;9.210;2022-07-17T07:55:35;6.00;;;5.40;;
986;SDS011;482;48.778;9.210;2022-07-17T07:58:04;6.00;;;5.60;;
986;SDS011;482;48.778;9.210;2022-07-17T08:00:32;6.40;;;5.87;;
986;SDS011;482;48.778;9.210;2022-07-17T08:02:59;6.20;;;5.63;;
986;SDS011;482;48.778;9.210;2022-07-17T08:05:27;5.83;;;5.43;;
986;SDS011;482;48.778;9.210;2022-07-17T08:07:54;5.17;;;4.67;;
986;SDS011;482;48.778;9.210;2022-07-17T08:10:21;8.10;;;5.43;;
986;SDS011;482;48.778;9.210;2022-07-17T08:12:48;5.47;;;5.07;;
986;SDS011;482;48.778;9.210;2022-07-17T08:15:16;5.67;;;5.27;;
986;SDS011;482;48.778;9.210;2022-07-17T08:17:45;5.53;;;5.03;;
986;SDS011;482;48.778;9.210;2022-07-17T08:20:13;6.27;;;5.17;;
986;SDS011;482;48.778;9.210;2022-07-17T08:22:41;5.77;;;5.27;;
986;SDS011;482;48.778;9.210;2022-07-17T08:25:08;5.70;;;5.23;;
986;SDS011;482;48.778;9.210;2022-07-17T08:27:36;6.10;;;5.47;;
986;SDS011;482;48.778;9.210;2022-07-17T08:30:03;6.10;;;5.60;;
986;SDS011;482;48.778;9.210;2022-07-17T08:32:32;5.40;;;5.00;;
986;SDS011;482;48.778;9.210;2022-07-17T08:34:59;5.30;;;4.90;;
986;SDS011;482;48.778;9.210;2022-07-17T08:37:27;4.90;;;4.60;;
986;SDS011;482;48.778;9.210;2022-07-17T08:39:54;6.33;;;5.83;;
986;SDS011;482;48.778;9.210;2022-07-17T08:42:22;5.17;;;4.87;;
986;SDS011;482;48.778;9.210;2022-07-17T08:44:49;6.33;;;5.87;;
986;SDS011;482;48.778;9.210;2022-07-17T08:47:16;5.00;;;4.70;;
986;SDS011;482;48.778;9.210;2022-07-17T08:49:45;5.50;;;5.10;;
986;SDS011;482;48.778;9.210;2022-07-17T08:52:14;5.30;;;5.00;;
986;SDS011;482;48.778;9.210;2022-07-17T08:54:42;5.53;;;5.03;;
986;SDS011;482;48.778;9.210;2022-07-17T08:57:08;5.10;;;4.80;;
986;SDS011;482;48.778;9.210;2022-07-17T08:59:36;5.37;;;5.07;;
986;SDS011;482;48.778;9.210;2022-07-17T09:02:03;5.63;;;5.23;;
986;SDS011;482;48.778;9.210;2022-07-17T09:04:31;5.10;;;4.60;;
986;SDS011;482;48.778;9.210;2022-07-17T09:07:00;5.10;;;4.80;;
986;SDS011;482;48.778;9.210;2022-07-17T09:09:27;4.77;;;4.47;;
986;SDS011;482;48.778;9.210;2022-07-17T09:11:55;4.87;;;4.47;;
986;SDS011;482;48.778;9.210;2022-07-17T09:14:23;5.00;;;4.70;;
986;SDS011;482;48.778;9.210;2022-07-17T09:17:03;4.47;;;4.20;;
986;SDS011;482;48.778;9.210;2022-07-17T09:19:30;5.00;;;4.70;;
986;SDS011;482;48.778;9.210;2022-07-17T09:22:07;4.50;;;4.20;;
986;SDS011;482;48.778;9.210;2022-07-17T09:24:40;4.50;;;4.20;;
986;SDS011;482;48.778;9.210;2022-07-17T09:27:13;4.30;;;4.00;;
986;SDS011;482;48.778;9.210;2022-07-17T09:29:50;4.37;;;4.10;;
986;SDS011;482;48.778;9.210;2022-07-17T09:32:18;4.43;;;4.23;;
986;SDS011;482;48.778;9.210;2022-07-17T09:34:46;4.50;;;4.20;;
986;SDS011;482;48.778;9.210;2022-07-17T09:37:15;4.30;;;4.00;;
986;SDS011;482;48.778;9.210;2022-07-17T09:39:42;3.80;;;3.50;;
986;SDS011;482;48.778;9.210;2022-07-17T09:42:10;3.63;;;3.33;;
986;SDS011;482;48.778;9.210;2022-07-17T09:44:54;3.40;;;3.30;;
986;SDS011;482;48.778;9.210;2022-07-17T09:47:22;2.90;;;2.80;;
986;SDS011;482;48.778;9.210;2022-07-17T09:49:49;2.80;;;2.67;;
986;SDS011;482;48.778;9.210;2022-07-17T09:52:19;3.50;;;3.20;;
986;SDS011;482;48.778;9.210;2022-07-17T09:54:47;4.20;;;3.90;;
986;SDS011;482;48.778;9.210;2022-07-17T09:57:14;3.43;;;3.23;;
986;SDS011;482;48.778;9.210;2022-07-17T09:59:42;3.77;;;3.57;;
986;SDS011;482;48.778;9.210;2022-07-17T10:02:11;3.40;;;3.20;;
986;SDS011;482;48.778;9.210;2022-07-17T10:04:39;3.53;;;3.33;;
986;SDS011;482;48.778;9.210;2022-07-17T10:07:06;4.40;;;4.10;;
986;SDS011;482;48.778;9.210;2022-07-17T10:09:36;3.80;;;3.60;;
986;SDS011;482;48.778;9.210;2022-07-17T10:12:05;3.87;;;3.67;;
986;SDS011;482;48.778;9.210;2022-07-17T10:14:33;3.70;;;3.50;;
986;SDS011;482;48.778;9.210;2022-07-17T10:17:07;3.80;;;3.60;;
986;SDS011;482;48.778;9.210;2022-07-17T10:19:42;3.90;;;3.70;;
986;SDS011;482;48.778;9.210;2022-07-17T10:22:11;3.60;;;3.40;;
986;SDS011;482;48.778;9.210;2022-07-17T10:24:46;3.90;;;3.70;;
986;SDS011;482;48.778;9.210;2022-07-17T10:27:17;4.43;;;4.13;;
986;SDS011;482;48.778;9.210;2022-07-17T10:29:58;4.10;;;3.80;;
986;SDS011;482;48.778;9.210;2022-07-17T10:32:26;4.03;;;3.80;;
986;SDS011;482;48.778;9.210;2022-07-17T10:34:57;4.53;;;4.23;;
986;SDS011;482;48.778;9.210;2022-07-17T10:37:26;4.00;;;3.80;;
986;SDS011;482;48.778;9.210;2022-07-17T10:40:11;4.43;;;4.13;;
986;SDS011;482;48.778;9.210;2022-07-17T10:42:45;3.93;;;3.70;;
986;SDS011;482;48.778;9.210;2022-07-17T10:45:14;4.60;;;4.30;;
986;SDS011;482;48.778;9.210;2022-07-17T10:50:26;4.03;;;3.83;;
986;SDS011;482;48.778;9.210;2022-07-17T10:53:02;4.50;;;4.20;;
986;SDS011;482;48.778;9.210;2022-07-17T10:55:32;4.20;;;3.90;;
986;SDS011;482;48.778;9.210;2022-07-17T10:57:59;4.50;;;4.20;;
986;SDS011;482;48.778;9.210;2022-07-17T11:00:26;4.07;;;3.77;;
986;SDS011;482;48.778;9.210;2022-07-17T11:02:53;3.87;;;3.63;;
986;SDS011;482;48.778;9.210;2022-07-17T11:05:21;4.10;;;3.80;;
986;SDS011;482;48.778;9.210;2022-07-17T11:07:52;4.10;;;3.90;;
986;SDS011;482;48.778;9.210;2022-07-17T11:10:20;4.30;;;4.00;;
986;SDS011;482;48.778;9.210;2022-07-17T11:12:49;3.93;;;3.73;;
986;SDS011;482;48.778;9.210;2022-07-17T11:15:16;3.83;;;3.63;;
986;SDS011;482;48.778;9.210;2022-07-17T11:17:44;4.30;;;4.00;;
986;SDS011;482;48.778;9.210;2022-07-17T11:20:12;4.30;;;4.00;;
986;SDS011;482;48.778;9.210;2022-07-17T11:22:40;4.10;;;3.80;;
986;SDS011;482;48.778;9.210;2022-07-17T11:25:08;4.40;;;3.97;;
986;SDS011;482;48.778;9.210;2022-07-17T11:27:36;4.40;;;4.00;;
986;SDS011;482;48.778;9.210;2022-07-17T11:30:10;3.90;;;3.60;;
986;SDS011;482;48.778;9.210;2022-07-17T11:32:41;3.90;;;3.60;;
986;SDS011;482;48.778;9.210;2022-07-17T11:35:14;3.80;;;3.60;;
986;SDS011;482;48.778;9.210;2022-07-17T11:37:42;3.73;;;3.53;;
986;SDS011;482;48.778;9.210;2022-07-17T11:40:09;3.50;;;3.30;;
986;SDS011;482;48.778;9.210;2022-07-17T11:42:37;4.60;;;4.30;;
986;SDS011;482;48.778;9.210;2022-07-17T11:45:06;4.43;;;4.13;;
986;SDS011;482;48.778;9.210;2022-07-17T11:47:34;3.90;;;3.60;;
986;SDS011;482;48.778;9.210;2022-07-17T11:50:05;3.80;;;3.50;;
986;SDS011;482;48.778;9.210;2022-07-17T11:52:39;3.70;;;3.50;;
986;SDS011;482;48.778;9.210;2022-07-17T11:55:08;4.20;;;3.90;;
986;SDS011;482;48.778;9.210;2022-07-17T11:57:43;4.70;;;4.40;;
986;SDS011;482;48.778;9.210;2022-07-17T12:00:14;4.13;;;3.83;;
986;SDS011;482;48.778;9.210;2022-07-17T12:02:41;4.10;;;3.90;;
986;SDS011;482;48.778;9.210;2022-07-17T12:05:09;4.17;;;3.87;;
986;SDS011;482;48.778;9.210;2022-07-17T12:07:40;4.63;;;4.23;;
986;SDS011;482;48.778;9.210;2022-07-17T12:10:12;3.80;;;3.60;;
986;SDS011;482;48.778;9.210;2022-07-17T12:12:50;3.93;;;3.67;;
986;SDS011;482;48.778;9.210;2022-07-17T12:15:20;3.67;;;3.47;;
986;SDS011;482;48.778;9.210;2022-07-17T12:17:47;4.27;;;3.97;;
986;SDS011;482;48.778;9.210;2022-07-17T12:20:14;3.77;;;3.57;;
986;SDS011;482;48.778;9.210;2022-07-17T12:22:41;4.03;;;3.83;;
986;SDS011;482;48.778;9.210;2022-07-17T12:25:10;4.10;;;3.90;;
986;SDS011;482;48.778;9.210;2022-07-17T12:27:47;4.60;;;4.30;;
986;SDS011;482;48.778;9.210;2022-07-17T12:30:14;4.10;;;3.90;;
986;SDS011;482;48.778;9.210;2022-07-17T12:32:42;4.00;;;3.80;;
986;SDS011;482;48.778;9.210;2022-07-17T12:35:09;4.13;;;3.93;;
986;SDS011;482;48.778;9.210;2022-07-17T12:37:36;4.33;;;4.13;;
986;SDS011;482;48.778;9.210;2022-07-17T12:40:03;4.17;;;3.97;;
986;SDS011;482;48.778;9.210;2022-07-17T12:42:31;4.30;;;4.10;;
986;SDS011;482;48.778;9.210;2022-07-17T12:44:58;4.07;;;3.87;;
986;SDS011;482;48.778;9.210;2022-07-17T12:47:26;4.13;;;3.93;;
986;SDS011;482;48.778;9.210;2022-07-17T12:49:54;4.83;;;4.53;;
986;SDS011;482;48.778;9.210;2022-07-17T12:52:21;4.10;;;3.90;;
986;SDS011;482;48.778;9.210;2022-07-17T12:54:48;4.50;;;4.30;;
986;SDS011;482;48.778;9.210;2022-07-17T12:57:15;4.50;;;4.20;;
986;SDS011;482;48.778;9.210;2022-07-17T12:59:42;4.10;;;3.80;;
986;SDS011;482;48.778;9.210;2022-07-17T13:02:09;4.10;;;3.90;;
986;SDS011;482;48.778;9.210;2022-07-17T13:04:36;4.43;;;4.13;;
986;SDS011;482;48.778;9.210;2022-07-17T13:07:05;4.30;;;4.00;;
986;SDS011;482;48.778;9.210;2022-07-17T13:09:32;3.80;;;3.50;;
986;SDS011;482;48.778;9.210;2022-07-17T13:12:01;3.93;;;3.73;;
986;SDS011;482;48.778;9.210;2022-07-17T13:14:28;4.10;;;3.80;;
986;SDS011;482;48.778;9.210;2022-07-17T13:16:55;4.20;;;3.90;;
986;SDS011;482;48.778;9.210;2022-07-17T13:19:22;4.10;;;3.80;;
986;SDS011;482;48.778;9.210;2022-07-17T13:21:49;3.70;;;3.50;;
986;SDS011;482;48.778;9.210;2022-07-17T13:24:18;3.60;;;3.40;;
986;SDS011;482;48.778;9.210;2022-07-17T13:26:44;3.70;;;3.50;;
986;SDS011;482;48.778;9.210;2022-07-17T13:29:11;3.90;;;3.70;;
986;SDS011;482;48.778;9.210;2022-07-17T13:31:38;3.67;;;3.40;;
986;SDS011;482;48.778;9.210;2022-07-17T13:34:05;3.70;;;3.50;;
986;SDS011;482;48.778;9.210;2022-07-17T13:36:32;3.40;;;3.20;;
986;SDS011;482;48.778;9.210;2022-07-17T13:38:59;3.50;;;3.30;;
986;SDS011;482;48.778;9.210;2022-07-17T13:41:27;3.60;;;3.40;;
986;SDS011;482;48.778;9.210;2022-07-17T13:43:54;3.53;;;3.33;;
986;SDS011;482;48.778;9.210;2022-07-17T13:46:21;3.63;;;3.43;;
986;SDS011;482;48.778;9.210;2022-07-17T13:48:48;3.23;;;3.03;;
986;SDS011;482;48.778;9.210;2022-07-17T13:51:14;3.50;;;3.30;;
986;SDS011;482;48.778;9.210;2022-07-17T13:53:41;5.33;;;3.50;;
986;SDS011;482;48.778;9.210;2022-07-17T13:56:08;3.90;;;3.60;;
986;SDS011;482;48.778;9.210;2022-07-17T13:58:36;4.07;;;3.60;;
986;SDS011;482;48.778;9.210;2022-07-17T14:01:03;3.30;;;3.10;;
986;SDS011;482;48.778;9.210;2022-07-17T14:03:31;3.57;;;3.37;;
986;SDS011;482;48.778;9.210;2022-07-17T14:05:58;3.43;;;3.23;;
986;SDS011;482;48.778;9.210;2022-07-17T14:08:25;3.03;;;2.93;;
986;SDS011;482;48.778;9.210;2022-07-17T14:10:52;3.67;;;3.10;;
986;SDS011;482;48.778;9.210;2022-07-17T14:13:19;3.70;;;3.50;;
986;SDS011;482;48.778;9.210;2022-07-17T14:15:48;3.13;;;2.93;;
986;SDS011;482;48.778;9.210;2022-07-17T14:18:15;3.77;;;3.47;;
986;SDS011;482;48.778;9.210;2022-07-17T14:20:42;3.60;;;3.40;;
986;SDS011;482;48.778;9.210;2022-07-17T14:23:10;3.10;;;3.00;;
986;SDS011;482;48.778;9.210;2022-07-17T14:25:37;3.83;;;3.57;;
986;SDS011;482;48.778;9.210;2022-07-17T14:28:04;4.00;;;3.70;;
986;SDS011;482;48.778;9.210;2022-07-17T14:30:31;3.40;;;3.20;;
986;SDS011;482;48.778;9.210;2022-07-17T14:33:01;3.40;;;3.20;;
986;SDS011;482;48.778;9.210;2022-07-17T14:35:28;3.40;;;3.20;;
986;SDS011;482;48.778;9.210;2022-07-17T14:37:56;3.43;;;3.23;;
986;SDS011;482;48.778;9.210;2022-07-17T14:40:23;3.20;;;3.00;;
986;SDS011;482;48.778;9.210;2022-07-17T14:42:51;3.20;;;3.00;;
986;SDS011;482;48.778;9.210;2022-07-17T14:45:18;11.13;;;10.13;;
986;SDS011;482;48.778;9.210;2022-07-17T14:47:45;3.77;;;3.57;;
986;SDS011;482;48.778;9.210;2022-07-17T14:50:14;3.00;;;2.80;;
986;SDS011;482;48.778;9.210;2022-07-17T14:52:40;3.13;;;2.90;;
986;SDS011;482;48.778;9.210;2022-07-17T14:55:08;3.13;;;2.87;;
986;SDS011;482;48.778;9.210;2022-07-17T14:57:35;2.87;;;2.77;;
986;SDS011;482;48.778;9.210;2022-07-17T15:00:02;3.30;;;3.00;;
986;SDS011;482;48.778;9.210;2022-07-17T15:02:30;3.90;;;3.60;;
986;SDS011;482;48.778;9.210;2022-07-17T15:04:57;3.50;;;3.30;;
986;SDS011;482;48.778;9.210;2022-07-17T15:07:25;3.47;;;3.27;;
986;SDS011;482;48.778;9.210;2022-07-17T15:09:52;3.60;;;2.90;;
986;SDS011;482;48.778;9.210;2022-07-17T15:12:18;3.50;;;3.30;;
986;SDS011;482;48.778;9.210;2022-07-17T15:14:45;3.50;;;3.30;;
986;SDS011;482;48.778;9.210;2022-07-17T15:17:12;3.40;;;3.10;;
986;SDS011;482;48.778;9.210;2022-07-17T15:19:39;3.03;;;2.93;;
986;SDS011;482;48.778;9.210;2022-07-17T15:22:07;3.53;;;3.33;;
986;SDS011;482;48.778;9.210;2022-07-17T15:24:35;5.40;;;3.73;;
986;SDS011;482;48.778;9.210;2022-07-17T15:27:02;3.53;;;3.30;;
986;SDS011;482;48.778;9.210;2022-07-17T15:29:29;3.60;;;3.40;;
986;SDS011;482;48.778;9.210;2022-07-17T15:31:56;3.77;;;3.47;;
986;SDS011;482;48.778;9.210;2022-07-17T15:34:23;3.53;;;3.23;;
986;SDS011;482;48.778;9.210;2022-07-17T15:36:50;3.60;;;3.30;;
986;SDS011;482;48.778;9.210;2022-07-17T15:39:17;3.50;;;3.30;;
986;SDS011;482;48.778;9.210;2022-07-17T15:41:47;3.10;;;3.00;;
986;SDS011;482;48.778;9.210;2022-07-17T15:44:14;3.60;;;3.30;;
986;SDS011;482;48.778;9.210;2022-07-17T15:46:43;3.60;;;3.37;;
986;SDS011;482;48.778;9.210;2022-07-17T15:49:10;3.27;;;3.07;;